Time;durP1;ratioP1;P1;durP2;ratioP2;P2;SDS_P1;SDS_P2;PMS_P1;PMS_P2;Temp;Humidity;BMP_temperature;BMP_pressure;BME280_temperature;BME280_humidity;BME280_pressure;Samples;Min_cycle;Max_cycle;Signal;HPM_P1;HPM_P2
2023/08/30 00:00:48;;;;;;;20.88;9.27;;;;;;;11.98;100.00;100730.47;5093038;28;20399;-76
2023/08/30 00:03:13;;;;;;;22.75;10.02;;;;;;;11.98;100.00;100716.16;5090948;28;20382;-76
2023/08/30 00:05:40;;;;;;;22.67;9.80;;;;;;;11.98;100.00;100726.94;5096032;28;20027;-76
2023/08/30 00:08:05;;;;;;;21.80;9.48;;;;;;;12.00;100.00;100724.97;5112152;28;20020;-76
2023/08/30 00:10:31;;;;;;;22.30;10.18;;;;;;;12.03;100.00;100716.63;5089080;28;20549;-76
2023/08/30 00:12:56;;;;;;;21.05;9.77;;;;;;;12.05;100.00;100717.38;5093204;28;20024;-76
2023/08/30 00:15:21;;;;;;;24.27;9.63;;;;;;;12.10;100.00;100711.59;5103547;28;20042;-76
2023/08/30 00:17:47;;;;;;;19.83;9.13;;;;;;;12.11;100.00;100711.47;5094142;28;20484;-76
2023/08/30 00:20:13;;;;;;;20.70;9.70;;;;;;;12.10;100.00;100719.69;5098446;28;20032;-76
2023/08/30 00:22:39;;;;;;;22.30;10.23;;;;;;;12.14;100.00;100710.34;5085201;28;20368;-76
2023/08/30 00:25:05;;;;;;;21.02;9.25;;;;;;;12.16;100.00;100708.41;5094092;28;20035;-76
2023/08/30 00:27:30;;;;;;;20.95;9.32;;;;;;;12.19;100.00;100708.97;5095918;28;20032;-75
2023/08/30 00:29:55;;;;;;;21.95;9.02;;;;;;;12.17;100.00;100705.56;5088186;28;20490;-76
2023/08/30 00:32:21;;;;;;;21.25;9.50;;;;;;;12.17;100.00;100716.34;5100677;28;20033;-75
2023/08/30 00:34:50;;;;;;;24.27;9.20;;;;;;;12.17;100.00;100710.13;5104101;28;20044;-75
2023/08/30 00:37:15;;;;;;;22.45;9.50;;;;;;;12.17;100.00;100707.41;5106577;28;20097;-75
2023/08/30 00:39:40;;;;;;;22.08;10.20;;;;;;;12.20;100.00;100709.84;5112777;28;20024;-75
2023/08/30 00:42:07;;;;;;;22.48;9.65;;;;;;;12.18;100.00;100701.03;5117794;28;20764;-75
2023/08/30 00:44:35;;;;;;;21.73;9.85;;;;;;;12.19;100.00;100703.59;5114550;28;20510;-74
2023/08/30 00:47:04;;;;;;;21.15;9.75;;;;;;;12.19;100.00;100695.50;5108649;28;20035;-74
2023/08/30 00:49:32;;;;;;;19.05;8.65;;;;;;;12.14;100.00;100688.78;5102954;28;20025;-75
2023/08/30 00:52:05;;;;;;;20.77;8.83;;;;;;;12.11;100.00;100683.66;5116544;28;20051;-76
2023/08/30 00:54:31;;;;;;;20.13;9.15;;;;;;;12.04;100.00;100678.78;5106636;28;20020;-76
2023/08/30 00:56:56;;;;;;;21.48;9.32;;;;;;;12.02;100.00;100682.56;5115892;28;20041;-75
2023/08/30 00:59:23;;;;;;;22.15;8.85;;;;;;;11.99;100.00;100685.53;5118841;28;20035;-76
2023/08/30 01:01:48;;;;;;;20.58;8.98;;;;;;;11.95;100.00;100678.66;5121532;28;20056;-75
2023/08/30 01:04:14;;;;;;;22.33;8.95;;;;;;;11.93;100.00;100675.22;5121296;28;20076;-76
2023/08/30 01:06:39;;;;;;;23.33;10.18;;;;;;;11.91;100.00;100677.22;5108796;28;20047;-75
2023/08/30 01:09:06;;;;;;;23.88;9.75;;;;;;;11.86;100.00;100677.59;5119860;28;20032;-75
2023/08/30 01:11:48;;;;;;;19.98;9.05;;;;;;;11.81;100.00;100677.09;5117813;28;20020;-75
2023/08/30 01:14:22;;;;;;;21.52;9.73;;;;;;;11.79;100.00;100673.69;5113869;28;20076;-75
2023/08/30 01:16:48;;;;;;;22.23;9.90;;;;;;;11.75;100.00;100673.06;5117404;28;20058;-75
2023/08/30 01:19:42;;;;;;;20.23;8.88;;;;;;;11.77;100.00;100673.81;5114662;28;20024;-74
2023/08/30 01:22:11;;;;;;;20.63;8.55;;;;;;;11.76;100.00;100668.50;5114960;28;20055;-75
2023/08/30 01:24:45;;;;;;;21.30;8.50;;;;;;;11.76;100.00;100669.41;5117826;28;20032;-75
2023/08/30 01:27:12;;;;;;;21.52;9.52;;;;;;;11.77;100.00;100670.22;5114279;28;20023;-75
2023/08/30 01:29:40;;;;;;;22.25;9.35;;;;;;;11.77;100.00;100660.34;5118230;28;20024;-75
2023/08/30 01:32:09;;;;;;;19.25;8.32;;;;;;;11.78;100.00;100667.41;5120240;28;20389;-75
2023/08/30 01:34:36;;;;;;;20.38;9.05;;;;;;;11.79;100.00;100660.22;5115848;28;20036;-75
2023/08/30 01:37:03;;;;;;;21.63;8.88;;;;;;;11.77;100.00;100664.84;5105063;28;20020;-75
2023/08/30 01:39:29;;;;;;;21.42;9.15;;;;;;;11.75;100.00;100661.44;5111637;28;20083;-75
2023/08/30 01:41:58;;;;;;;19.55;9.23;;;;;;;11.74;100.00;100667.78;5110827;28;20019;-76
2023/08/30 01:44:27;;;;;;;24.20;10.27;;;;;;;11.74;100.00;100665.09;5102757;28;20088;-76
2023/08/30 01:46:53;;;;;;;21.17;8.33;;;;;;;11.72;100.00;100663.38;5090388;28;20491;-76
2023/08/30 01:49:19;;;;;;;23.90;8.77;;;;;;;11.68;100.00;100661.94;5087653;28;20035;-76
2023/08/30 01:51:45;;;;;;;20.75;8.15;;;;;;;11.64;100.00;100659.59;5102378;28;20027;-76
2023/08/30 01:54:17;;;;;;;22.48;9.40;;;;;;;11.59;100.00;100665.34;5095935;28;20085;-76
2023/08/30 01:56:42;;;;;;;20.92;8.02;;;;;;;11.53;100.00;100653.25;5091288;28;20029;-76
2023/08/30 01:59:08;;;;;;;20.80;8.05;;;;;;;11.50;100.00;100656.19;5099266;28;20078;-76
2023/08/30 02:01:33;;;;;;;21.58;8.73;;;;;;;11.44;100.00;100659.38;5095900;28;20034;-76
2023/08/30 02:04:00;;;;;;;22.77;10.00;;;;;;;11.41;100.00;100665.00;5088894;28;20121;-76
2023/08/30 02:06:50;;;;;;;21.00;9.23;;;;;;;11.35;100.00;100665.50;5095587;28;20020;-76
2023/08/30 02:09:40;;;;;;;24.08;8.27;;;;;;;11.34;100.00;100663.78;5096341;28;20024;-76
2023/08/30 02:12:12;;;;;;;20.52;8.70;;;;;;;11.33;100.00;100659.38;5102088;28;20031;-76
2023/08/30 02:14:39;;;;;;;19.52;8.40;;;;;;;11.34;100.00;100663.78;5105869;28;20098;-76
2023/08/30 02:17:05;;;;;;;20.60;8.93;;;;;;;11.35;100.00;100658.28;5095648;28;20106;-76
2023/08/30 02:19:31;;;;;;;19.30;8.02;;;;;;;11.34;100.00;100651.19;5103482;28;20106;-76
2023/08/30 02:21:56;;;;;;;19.50;8.45;;;;;;;11.38;100.00;100651.81;5099866;28;20492;-76
2023/08/30 02:24:22;;;;;;;20.27;8.48;;;;;;;11.41;100.00;100646.19;5098405;28;20032;-76
2023/08/30 02:26:47;;;;;;;22.98;9.93;;;;;;;11.43;100.00;100638.81;5104214;28;20020;-76
2023/08/30 02:29:13;;;;;;;21.73;9.40;;;;;;;11.46;100.00;100640.41;5093317;28;20020;-76
2023/08/30 02:31:38;;;;;;;19.73;8.40;;;;;;;11.48;100.00;100633.94;5103029;28;20020;-76
2023/08/30 02:34:03;;;;;;;19.33;7.85;;;;;;;11.50;100.00;100631.13;5100664;28;20034;-76
2023/08/30 02:36:29;;;;;;;22.20;9.52;;;;;;;11.54;100.00;100628.06;5100292;28;20111;-76
2023/08/30 02:38:54;;;;;;;22.40;9.85;;;;;;;11.60;100.00;100632.09;5109020;28;20500;-76
2023/08/30 02:41:19;;;;;;;20.95;9.63;;;;;;;11.65;100.00;100627.16;5099893;28;20038;-76
2023/08/30 02:43:45;;;;;;;21.60;9.30;;;;;;;11.70;100.00;100621.44;5103165;28;20085;-76
2023/08/30 02:46:10;;;;;;;20.45;9.82;;;;;;;11.74;100.00;100628.25;5106728;28;20031;-76
2023/08/30 02:48:35;;;;;;;22.73;9.55;;;;;;;11.80;100.00;100629.59;5097323;28;20038;-76
2023/08/30 02:51:01;;;;;;;25.75;11.18;;;;;;;11.85;100.00;100630.94;5096752;28;20020;-75
2023/08/30 02:53:26;;;;;;;22.15;10.90;;;;;;;11.89;100.00;100635.09;5111125;28;20027;-75
2023/08/30 02:55:55;;;;;;;25.33;11.70;;;;;;;11.94;100.00;100625.81;5115973;28;20024;-75
2023/08/30 02:58:20;;;;;;;26.73;11.53;;;;;;;11.99;100.00;100620.88;5122273;28;20031;-75
2023/08/30 03:00:45;;;;;;;24.20;10.85;;;;;;;12.01;100.00;100621.63;5115867;28;20409;-75
2023/08/30 03:03:11;;;;;;;24.05;12.00;;;;;;;12.05;100.00;100615.84;5120103;28;20040;-75
2023/08/30 03:05:37;;;;;;;25.08;11.07;;;;;;;12.08;100.00;100614.75;5124394;28;20031;-75
2023/08/30 03:08:02;;;;;;;25.00;10.70;;;;;;;12.12;100.00;100613.50;5109009;28;20069;-75
2023/08/30 03:10:28;;;;;;;27.48;12.38;;;;;;;12.15;100.00;100617.78;5110054;28;20024;-75
2023/08/30 03:12:53;;;;;;;24.63;11.90;;;;;;;12.19;100.00;100611.16;5120465;28;20042;-75
2023/08/30 03:15:18;;;;;;;23.60;11.73;;;;;;;12.22;100.00;100617.13;5122878;28;20016;-75
2023/08/30 03:17:44;;;;;;;23.33;11.98;;;;;;;12.26;100.00;100614.19;5111310;28;20040;-75
2023/08/30 03:20:10;;;;;;;22.90;11.63;;;;;;;12.27;100.00;100607.81;5116594;28;20029;-76
2023/08/30 03:22:35;;;;;;;24.38;12.23;;;;;;;12.30;100.00;100610.22;5120058;28;20043;-75
2023/08/30 03:25:03;;;;;;;25.55;11.68;;;;;;;12.32;100.00;100606.44;5123329;28;20030;-75
2023/08/30 03:27:29;;;;;;;23.40;12.48;;;;;;;12.35;100.00;100603.47;5109249;28;20046;-75
2023/08/30 03:29:55;;;;;;;24.33;12.38;;;;;;;12.40;100.00;100592.28;5126902;28;20023;-75
2023/08/30 03:32:21;;;;;;;22.73;11.93;;;;;;;12.44;100.00;100588.34;5114318;28;20031;-75
2023/08/30 03:34:47;;;;;;;23.10;11.15;;;;;;;12.48;100.00;100584.41;5115682;28;20077;-75
2023/08/30 03:37:14;;;;;;;23.38;11.48;;;;;;;12.49;100.00;100587.97;5115023;28;20027;-75
2023/08/30 03:39:39;;;;;;;24.08;11.95;;;;;;;12.51;100.00;100570.66;5109872;28;20027;-75
2023/08/30 03:42:05;;;;;;;23.85;11.20;;;;;;;12.54;100.00;100570.41;5118755;28;20038;-75
2023/08/30 03:44:30;;;;;;;24.27;12.32;;;;;;;12.59;100.00;100565.50;5122555;28;20421;-75
2023/08/30 03:46:56;;;;;;;23.83;11.65;;;;;;;12.63;100.00;100554.44;5112956;28;20049;-75
2023/08/30 03:49:22;;;;;;;22.65;11.15;;;;;;;12.62;100.00;100550.03;5107061;28;20017;-75
2023/08/30 03:51:47;;;;;;;22.90;11.82;;;;;;;12.65;100.00;100541.66;5105766;28;20385;-75
2023/08/30 03:54:16;;;;;;;24.27;12.00;;;;;;;12.66;100.00;100533.44;5112559;28;20083;-75
2023/08/30 03:56:44;;;;;;;23.10;11.60;;;;;;;12.67;100.00;100535.16;5122987;28;20050;-75
2023/08/30 03:59:10;;;;;;;24.83;11.13;;;;;;;12.68;100.00;100531.47;5109569;28;20032;-75
2023/08/30 04:01:35;;;;;;;26.40;12.43;;;;;;;12.69;100.00;100522.38;5114002;28;20027;-75
2023/08/30 04:04:00;;;;;;;24.85;12.45;;;;;;;12.69;100.00;100516.16;5098774;28;20505;-76
2023/08/30 04:06:26;;;;;;;23.17;11.63;;;;;;;12.70;100.00;100512.47;5103960;28;20051;-76
2023/08/30 04:08:51;;;;;;;26.33;11.65;;;;;;;12.67;100.00;100502.81;5103086;28;20078;-76
2023/08/30 04:11:16;;;;;;;23.83;11.38;;;;;;;12.66;100.00;100505.63;5101386;28;20401;-76
2023/08/30 04:13:42;;;;;;;24.40;11.50;;;;;;;12.67;100.00;100507.34;5089273;28;20025;-76
2023/08/30 04:16:07;;;;;;;23.23;11.70;;;;;;;12.65;100.00;100506.63;5098639;28;20027;-76
2023/08/30 04:18:32;;;;;;;24.52;12.32;;;;;;;12.65;100.00;100514.69;5095592;28;20059;-76
2023/08/30 04:20:58;;;;;;;23.25;12.13;;;;;;;12.63;100.00;100511.28;5098709;28;20107;-76
2023/08/30 04:23:23;;;;;;;27.27;11.98;;;;;;;12.64;100.00;100511.16;5092090;28;20028;-76
2023/08/30 04:25:49;;;;;;;23.52;12.02;;;;;;;12.64;100.00;100513.00;5103770;28;20026;-76
2023/08/30 04:28:14;;;;;;;24.33;12.05;;;;;;;12.67;100.00;100504.66;5098172;28;20027;-76
2023/08/30 04:30:40;;;;;;;24.52;12.55;;;;;;;12.68;100.00;100509.03;5101047;28;20016;-76
2023/08/30 04:33:05;;;;;;;25.38;11.90;;;;;;;12.71;100.00;100509.63;5095552;28;20024;-76
2023/08/30 04:35:31;;;;;;;22.40;11.38;;;;;;;12.74;100.00;100503.13;5088628;28;20505;-76
2023/08/30 04:37:58;;;;;;;22.63;13.23;;;;;;;12.76;100.00;100495.75;5097164;28;20470;-76
2023/08/30 04:40:24;;;;;;;23.83;12.30;;;;;;;12.78;100.00;100504.53;5099893;28;20077;-76
2023/08/30 04:42:49;;;;;;;25.00;12.15;;;;;;;12.82;100.00;100495.19;5101921;28;20028;-76
2023/08/30 04:45:15;;;;;;;23.50;11.68;;;;;;;12.86;100.00;100503.88;5094807;28;20031;-76
2023/08/30 04:47:42;;;;;;;25.48;12.35;;;;;;;12.89;100.00;100498.22;5090209;28;20058;-76
2023/08/30 04:50:08;;;;;;;24.38;11.27;;;;;;;12.90;100.00;100492.69;5101249;28;20024;-76
2023/08/30 04:52:33;;;;;;;24.58;12.23;;;;;;;12.93;100.00;100491.56;5099747;28;20572;-76
2023/08/30 04:54:59;;;;;;;25.17;12.63;;;;;;;12.91;100.00;100489.00;5093307;28;20024;-76
2023/08/30 04:57:24;;;;;;;20.92;10.65;;;;;;;12.92;100.00;100485.28;5102138;28;20385;-76
2023/08/30 04:59:50;;;;;;;21.85;11.55;;;;;;;12.94;100.00;100482.47;5092507;28;20084;-76
2023/08/30 05:02:15;;;;;;;23.63;12.88;;;;;;;12.97;100.00;100470.56;5101524;28;20039;-75
2023/08/30 05:04:40;;;;;;;24.65;12.65;;;;;;;12.98;100.00;100480.34;5092056;28;20028;-77
2023/08/30 05:07:06;;;;;;;22.13;11.27;;;;;;;13.01;100.00;100480.06;5089498;28;20023;-76
2023/08/30 05:09:32;;;;;;;22.73;11.77;;;;;;;13.02;100.00;100479.09;5102754;28;20506;-76
2023/08/30 05:11:57;;;;;;;24.88;12.90;;;;;;;13.05;100.00;100478.81;5089529;28;20478;-76
2023/08/30 05:14:23;;;;;;;24.20;11.32;;;;;;;13.09;100.00;100472.16;5093857;28;20021;-76
2023/08/30 05:16:51;;;;;;;23.50;11.98;;;;;;;13.10;100.00;100468.44;5090821;28;20039;-76
2023/08/30 05:19:16;;;;;;;23.73;12.50;;;;;;;13.13;100.00;100462.78;5093851;28;20012;-76
2023/08/30 05:21:45;;;;;;;23.52;11.43;;;;;;;13.14;100.00;100459.09;5097848;28;20371;-75
2023/08/30 05:24:11;;;;;;;24.35;12.85;;;;;;;13.19;100.00;100453.28;5095707;28;20471;-76
2023/08/30 05:26:36;;;;;;;22.73;11.60;;;;;;;13.20;100.00;100455.84;5101899;28;20084;-76
2023/08/30 05:29:03;;;;;;;23.42;11.40;;;;;;;13.22;100.00;100455.69;5100375;28;20024;-75
2023/08/30 05:31:28;;;;;;;23.30;12.15;;;;;;;13.25;100.00;100455.41;5093635;28;20068;-76
2023/08/30 05:33:53;;;;;;;24.67;11.30;;;;;;;13.28;100.00;100458.69;5099879;28;20588;-74
2023/08/30 05:36:19;;;;;;;25.67;11.00;;;;;;;13.31;100.00;100459.41;5097728;28;20383;-75
2023/08/30 05:38:44;;;;;;;24.10;12.52;;;;;;;13.32;100.00;100455.72;5110280;28;20049;-76
2023/08/30 05:41:09;;;;;;;24.00;11.68;;;;;;;13.32;100.00;100458.41;5101011;28;20035;-76
2023/08/30 05:43:35;;;;;;;23.38;11.98;;;;;;;13.33;100.00;100452.03;5099698;28;20599;-76
2023/08/30 05:46:03;;;;;;;27.23;13.57;;;;;;;13.36;100.00;100449.09;5100933;28;20020;-76
2023/08/30 05:48:29;;;;;;;23.45;11.73;;;;;;;13.38;100.00;100441.69;5093776;28;20042;-75
2023/08/30 05:50:55;;;;;;;24.13;12.00;;;;;;;13.40;100.00;100442.41;5103707;28;20575;-76
2023/08/30 05:53:20;;;;;;;23.80;11.98;;;;;;;13.44;100.00;100435.72;5109068;28;20020;-75
2023/08/30 05:55:45;;;;;;;25.70;14.05;;;;;;;13.46;100.00;100433.75;5107830;28;20016;-76
2023/08/30 05:58:11;;;;;;;22.20;11.07;;;;;;;13.46;100.00;100431.03;5101870;28;20031;-79
2023/08/30 06:00:36;;;;;;;23.95;12.35;;;;;;;13.49;100.00;100428.06;5107129;28;20126;-77
2023/08/30 06:03:02;;;;;;;23.23;11.65;;;;;;;13.53;100.00;100426.78;5095516;28;20086;-77
2023/08/30 06:05:28;;;;;;;23.50;11.77;;;;;;;13.55;100.00;100427.47;5099657;28;20019;-76
2023/08/30 06:07:54;;;;;;;26.13;12.73;;;;;;;13.56;100.00;100429.19;5099466;28;20040;-77
2023/08/30 06:10:19;;;;;;;23.83;12.25;;;;;;;13.58;100.00;100427.19;5104145;28;20016;-77
2023/08/30 06:12:44;;;;;;;23.90;12.68;;;;;;;13.62;100.00;100430.47;5100913;28;20130;-77
2023/08/30 06:15:10;;;;;;;23.83;12.35;;;;;;;13.61;100.00;100426.91;5100174;28;20063;-76
2023/08/30 06:17:35;;;;;;;24.17;11.60;;;;;;;13.62;100.00;100428.63;5099100;28;20504;-76
2023/08/30 06:20:00;;;;;;;22.50;11.93;;;;;;;13.67;100.00;100432.75;5099973;28;20437;-77
2023/08/30 06:22:26;;;;;;;23.17;11.77;;;;;;;13.68;100.00;100429.06;5100093;28;20035;-76
2023/08/30 06:24:51;;;;;;;22.98;11.65;;;;;;;13.70;100.00;100416.25;5107025;28;20087;-76
2023/08/30 06:27:16;;;;;;;23.38;11.20;;;;;;;13.70;100.00;100410.84;5095497;28;20024;-81
2023/08/30 06:29:42;;;;;;;23.67;11.35;;;;;;;13.70;100.00;100417.09;5093322;28;20092;-78
2023/08/30 06:32:07;;;;;;;27.20;11.45;;;;;;;13.72;100.00;100412.41;5103068;28;20027;-75
2023/08/30 06:34:32;;;;;;;24.13;12.02;;;;;;;13.73;100.00;100418.66;5101239;28;20119;-75
2023/08/30 06:36:58;;;;;;;24.40;11.43;;;;;;;13.73;100.00;100421.38;5097260;28;20389;-77
2023/08/30 06:39:23;;;;;;;24.02;12.10;;;;;;;13.76;100.00;100426.47;5100642;28;20395;-77
2023/08/30 06:41:48;;;;;;;24.08;11.75;;;;;;;13.77;100.00;100430.88;5099169;28;20056;-79
2023/08/30 06:44:14;;;;;;;22.73;11.50;;;;;;;13.79;100.00;100431.59;5096026;28;20493;-77
2023/08/30 06:46:39;;;;;;;25.65;11.82;;;;;;;13.79;100.00;100426.19;5096815;28;20473;-77
2023/08/30 06:49:05;;;;;;;24.52;12.15;;;;;;;13.79;100.00;100426.19;5103466;28;20063;-78
2023/08/30 06:51:31;;;;;;;24.25;12.27;;;;;;;13.77;100.00;100434.44;5098089;28;20104;-75
2023/08/30 06:54:00;;;;;;;22.98;11.75;;;;;;;13.77;100.00;100430.88;5104952;28;20034;-75
2023/08/30 06:56:26;;;;;;;24.17;12.00;;;;;;;13.79;100.00;100437.88;5098019;28;20076;-75
2023/08/30 06:58:51;;;;;;;24.90;12.40;;;;;;;13.78;100.00;100451.50;5095962;28;20028;-59
2023/08/30 07:01:16;;;;;;;25.42;11.32;;;;;;;13.71;100.00;100447.69;5115378;28;20028;-78
2023/08/30 07:03:41;;;;;;;25.75;11.68;;;;;;;13.66;100.00;100434.59;5119118;28;20122;-78
2023/08/30 07:06:07;;;;;;;27.33;12.45;;;;;;;13.60;100.00;100438.72;5118247;28;20073;-77
2023/08/30 07:08:32;;;;;;;23.73;10.18;;;;;;;13.54;100.00;100423.06;5117241;28;20113;-79
2023/08/30 07:10:58;;;;;;;22.88;10.00;;;;;;;13.51;100.00;100409.00;5114549;28;20031;-79
2023/08/30 07:13:23;;;;;;;22.55;9.48;;;;;;;13.46;100.00;100402.19;5114783;28;20035;-79
2023/08/30 07:15:48;;;;;;;21.95;9.52;;;;;;;13.39;100.00;100394.81;5112515;28;20073;-79
2023/08/30 07:18:14;;;;;;;22.10;9.52;;;;;;;13.33;100.00;100396.19;5097301;28;20024;-79
2023/08/30 07:20:39;;;;;;;21.85;9.82;;;;;;;13.29;100.00;100389.38;5111311;28;20028;-79
2023/08/30 07:23:04;;;;;;;23.38;9.50;;;;;;;13.26;100.00;100382.41;5108427;28;20041;-77
2023/08/30 07:25:32;;;;;;;19.88;8.90;;;;;;;13.25;100.00;100378.03;5115413;28;20039;-77
2023/08/30 07:27:57;;;;;;;22.33;8.13;;;;;;;13.24;100.00;100386.25;5113593;28;20035;-77
2023/08/30 07:30:23;;;;;;;22.88;9.38;;;;;;;13.24;100.00;100392.50;5111402;28;20031;-77
2023/08/30 07:32:48;;;;;;;23.88;9.38;;;;;;;13.24;100.00;100381.69;5105045;28;20019;-74
2023/08/30 07:35:13;;;;;;;21.02;8.73;;;;;;;13.25;100.00;100379.84;5097531;28;20028;-74
2023/08/30 07:37:39;;;;;;;21.55;8.50;;;;;;;13.25;100.00;100380.72;5099521;28;20104;-74
2023/08/30 07:40:05;;;;;;;19.08;7.97;;;;;;;13.24;100.00;100379.00;5101369;28;20510;-74
2023/08/30 07:42:30;;;;;;;21.27;8.52;;;;;;;13.25;100.00;100374.44;5101218;28;20040;-74
2023/08/30 07:44:55;;;;;;;19.80;8.48;;;;;;;13.25;100.00;100372.63;5104346;28;20028;-74
2023/08/30 07:47:21;;;;;;;19.73;7.20;;;;;;;13.25;100.00;100375.31;5099846;28;20024;-74
2023/08/30 07:49:46;;;;;;;21.40;8.20;;;;;;;13.25;100.00;100371.75;5100867;28;20035;-74
2023/08/30 07:52:12;;;;;;;18.90;7.28;;;;;;;13.27;100.00;100369.78;5105003;28;20020;-74
2023/08/30 07:54:39;;;;;;;20.35;7.50;;;;;;;13.28;100.00;100366.94;5105646;28;20097;-74
2023/08/30 07:57:05;;;;;;;19.77;7.55;;;;;;;13.29;100.00;100363.25;5102839;28;20088;-74
2023/08/30 07:59:33;;;;;;;20.58;8.25;;;;;;;13.32;100.00;100369.34;5097390;28;20032;-74
2023/08/30 08:01:59;;;;;;;19.13;7.53;;;;;;;13.35;100.00;100364.53;5100978;28;20086;-74
2023/08/30 08:04:24;;;;;;;20.25;7.68;;;;;;;13.36;100.00;100365.41;5102105;28;20440;-74
2023/08/30 08:06:49;;;;;;;19.10;7.63;;;;;;;13.36;100.00;100370.81;5095843;28;20357;-74
2023/08/30 08:09:15;;;;;;;17.88;6.25;;;;;;;13.38;100.00;100366.09;5091365;28;20081;-74
2023/08/30 08:11:43;;;;;;;17.83;6.63;;;;;;;13.36;100.00;100368.94;5092362;28;20036;-74
2023/08/30 08:14:09;;;;;;;19.83;7.63;;;;;;;13.36;100.00;100368.94;5101869;28;20074;-75
2023/08/30 08:16:35;;;;;;;17.33;6.57;;;;;;;13.37;100.00;100369.81;5092931;28;20602;-74
2023/08/30 08:19:01;;;;;;;19.25;7.65;;;;;;;13.36;100.00;100370.81;5099004;28;20024;-75
2023/08/30 08:21:27;;;;;;;19.25;6.70;;;;;;;13.37;100.00;100372.53;5100715;28;20118;-74
2023/08/30 08:23:52;;;;;;;20.50;7.15;;;;;;;13.36;100.00;100378.91;5100573;28;20103;-74
2023/08/30 08:26:18;;;;;;;18.95;6.20;;;;;;;13.36;100.00;100368.09;5101885;28;20027;-74
2023/08/30 08:28:44;;;;;;;20.48;6.20;;;;;;;13.38;100.00;100371.50;5104166;28;20047;-74
2023/08/30 08:31:09;;;;;;;17.27;5.78;;;;;;;13.38;100.00;100366.97;5103598;28;20020;-74
2023/08/30 08:33:35;;;;;;;17.38;5.78;;;;;;;13.42;100.00;100376.47;5102900;28;20027;-75
2023/08/30 08:36:01;;;;;;;14.75;5.30;;;;;;;13.43;100.00;100374.66;5100450;28;20496;-74
2023/08/30 08:38:26;;;;;;;17.50;6.47;;;;;;;13.44;100.00;100379.03;5101152;28;20513;-73
2023/08/30 08:41:01;;;;;;;17.65;6.28;;;;;;;13.45;100.00;100365.38;5100242;28;20032;-75
2023/08/30 08:43:28;;;;;;;15.82;5.50;;;;;;;13.47;100.00;100376.06;5102015;28;20030;-75
2023/08/30 08:45:59;;;;;;;17.48;6.40;;;;;;;13.49;100.00;100373.22;5101556;28;20126;-74
2023/08/30 08:48:28;;;;;;;17.55;5.28;;;;;;;13.52;100.00;100364.84;5100736;28;20430;-74
2023/08/30 08:50:53;;;;;;;17.33;5.65;;;;;;;13.54;100.00;100366.38;5088841;28;20367;-75
2023/08/30 08:53:19;;;;;;;15.88;5.57;;;;;;;13.55;100.00;100368.09;5104322;28;20019;-74
2023/08/30 08:55:46;;;;;;;19.55;5.30;;;;;;;13.58;100.00;100373.19;5104425;28;20421;-74
2023/08/30 08:58:13;;;;;;;18.10;5.72;;;;;;;13.62;100.00;100363.81;5094568;28;20455;-74
2023/08/30 09:00:38;;;;;;;15.55;5.32;;;;;;;13.65;100.00;100368.09;5104126;28;20028;-75
2023/08/30 09:03:05;;;;;;;15.43;5.32;;;;;;;13.70;100.00;100365.78;5100936;28;20139;-75
2023/08/30 09:05:32;;;;;;;15.40;5.88;;;;;;;13.77;100.00;100376.88;5092432;28;20059;-74
2023/08/30 09:07:58;;;;;;;14.60;5.15;;;;;;;13.83;100.00;100367.34;5100816;28;20050;-74
2023/08/30 09:10:23;;;;;;;14.43;5.20;;;;;;;13.88;100.00;100374.00;5105789;28;20483;-74
2023/08/30 09:12:48;;;;;;;13.95;4.82;;;;;;;13.95;100.00;100369.72;5097954;28;20106;-74
2023/08/30 09:15:15;;;;;;;17.05;6.07;;;;;;;14.00;100.00;100363.88;5102682;28;20024;-74
2023/08/30 09:17:41;;;;;;;17.90;6.15;;;;;;;14.09;100.00;100354.03;5098727;28;20355;-74
2023/08/30 09:20:10;;;;;;;17.17;6.43;;;;;;;14.14;100.00;100357.13;5099329;28;20055;-74
2023/08/30 09:22:39;;;;;;;;;;;;;;;14.19;100.00;100359.41;5100622;28;20027;-75
2023/08/30 09:25:09;;;;;;;17.25;6.53;;;;;;;14.22;100.00;100364.53;5099935;28;20015;-74
2023/08/30 09:27:34;;;;;;;18.55;6.05;;;;;;;14.26;100.00;100372.19;5100877;28;20360;-74
2023/08/30 09:30:00;;;;;;;16.33;6.22;;;;;;;14.31;100.00;100374.44;5100185;28;20027;-74
2023/08/30 09:32:25;;;;;;;16.52;6.15;;;;;;;14.34;100.00;100366.03;5103461;28;20080;-74
2023/08/30 09:34:51;;;;;;;15.95;6.32;;;;;;;14.38;100.00;100367.44;5103214;28;20032;-74
2023/08/30 09:37:21;;;;;;;17.33;6.10;;;;;;;14.43;100.00;100372.41;5103771;28;20468;-74
2023/08/30 09:39:50;;;;;;;;;;;;;;;14.49;100.00;100377.19;5101047;28;20022;-74
2023/08/30 09:42:17;;;;;;;17.93;6.57;;;;;;;14.56;100.00;100372.06;5093220;28;19919;-74
2023/08/30 09:44:43;;;;;;;18.80;6.68;;;;;;;14.57;100.00;100369.19;5102006;28;20269;-74
2023/08/30 09:47:08;;;;;;;18.88;7.30;;;;;;;14.59;100.00;100366.34;5099298;28;20035;-74
2023/08/30 09:49:47;;;;;;;18.15;6.93;;;;;;;14.60;100.00;100371.59;5096872;28;20076;-74
2023/08/30 09:52:15;;;;;;;18.92;7.32;;;;;;;14.68;100.00;100365.47;5094505;28;20168;-74
2023/08/30 09:54:43;;;;;;;19.35;7.53;;;;;;;14.78;100.00;100371.66;5091756;28;20020;-74
2023/08/30 09:57:12;;;;;;;19.65;8.45;;;;;;;14.86;100.00;100365.47;5101230;28;20127;-74
2023/08/30 09:59:39;;;;;;;18.45;7.85;;;;;;;14.96;100.00;100360.84;5096677;28;20120;-74
2023/08/30 10:02:05;;;;;;;19.33;7.97;;;;;;;15.06;100.00;100363.50;5098984;28;20025;-74
2023/08/30 10:04:31;;;;;;;18.58;7.78;;;;;;;15.13;100.00;100361.03;5102479;28;20036;-74
2023/08/30 10:07:00;;;;;;;18.67;8.00;;;;;;;15.20;100.00;100354.00;5103654;28;20110;-73
2023/08/30 10:09:25;;;;;;;20.80;8.90;;;;;;;15.30;100.00;100362.91;5100816;28;20023;-74
2023/08/30 10:11:51;;;;;;;19.05;8.45;;;;;;;15.37;100.00;100346.88;5090289;28;20023;-74
2023/08/30 10:14:17;;;;;;;20.60;8.95;;;;;;;15.45;100.00;100351.53;5095987;28;20090;-74
2023/08/30 10:16:44;;;;;;;21.25;8.85;;;;;;;15.55;100.00;100350.41;5103807;28;20031;-74
2023/08/30 10:19:15;;;;;;;21.67;10.13;;;;;;;15.65;100.00;100344.91;5103976;28;20106;-74
2023/08/30 10:21:43;;;;;;;20.65;9.57;;;;;;;15.69;100.00;100348.13;5089954;28;20119;-75
2023/08/30 10:24:11;;;;;;;22.17;9.45;;;;;;;15.72;100.00;100345.97;5087865;28;20099;-74
2023/08/30 10:26:38;;;;;;;20.58;9.52;;;;;;;15.79;100.00;100339.94;5097950;28;20102;-74
2023/08/30 10:29:05;;;;;;;20.63;9.07;;;;;;;15.86;100.00;100332.88;5103057;28;20024;-75
2023/08/30 10:31:30;;;;;;;21.30;10.05;;;;;;;15.88;100.00;100330.84;5092353;28;20032;-74
2023/08/30 10:33:56;;;;;;;21.35;9.00;;;;;;;15.95;100.00;100331.09;5105860;28;20041;-74
2023/08/30 10:36:26;;;;;;;22.40;9.90;;;;;;;16.02;100.00;100326.72;5107399;28;20450;-74
2023/08/30 10:38:53;;;;;;;19.85;9.50;;;;;;;16.05;100.00;100335.38;5095684;28;20402;-75
2023/08/30 10:41:25;;;;;;;20.52;9.32;;;;;;;16.12;100.00;100334.72;5103918;28;20078;-74
2023/08/30 10:44:01;;;;;;;21.27;9.20;;;;;;;16.17;100.00;100333.22;5107304;28;20031;-74
2023/08/30 10:46:35;;;;;;;19.63;9.35;;;;;;;16.25;100.00;100332.41;5103549;28;20034;-74
2023/08/30 10:49:14;;;;;;;19.00;8.02;;;;;;;16.32;100.00;100328.03;5103051;28;20471;-75
2023/08/30 10:51:40;;;;;;;19.25;9.13;;;;;;;16.36;100.00;100328.56;5103648;28;20092;-75
2023/08/30 10:54:11;;;;;;;22.30;8.15;;;;;;;16.48;100.00;100326.41;5104169;28;20028;-75
2023/08/30 10:56:47;;;;;;;18.75;8.00;;;;;;;16.55;100.00;100327.47;5105844;27;20031;-74
2023/08/30 10:59:23;;;;;;;18.90;7.68;;;;;;;16.60;100.00;100330.50;5106044;28;20110;-74
2023/08/30 11:01:51;;;;;;;18.70;7.47;;;;;;;16.65;100.00;100330.88;5107508;28;20027;-78
2023/08/30 11:04:18;;;;;;;18.73;6.50;;;;;;;16.65;100.00;100332.72;5102677;28;20441;-77